Time;durP1;ratioP1;P1;durP2;ratioP2;P2;SDS_P1;SDS_P2;PMS_P1;PMS_P2;Temp;Humidity;BMP_temperature;BMP_pressure;BME280_temperature;BME280_humidity;BME280_pressure;Samples;Min_cycle;Max_cycle;Signal;HPM_P1;HPM_P2
2021/05/06 00:05:28;;;;;;;4.70;2.60;;;;;;;;;;741491;185;918891;-73
2021/05/06 00:07:56;;;;;;;5.17;2.13;;;;;;;;;;743293;184;917790;-73
2021/05/06 00:11:01;;;;;;;3.12;1.92;;;;;;;;;;743992;186;1021106;-73
2021/05/06 00:33:13;;;;;;;3.57;2.23;;;;;;;;;;748546;186;918453;-75
2021/05/06 00:35:38;;;;;;;5.93;3.80;;;;;;;;;;744754;185;1122451;-76
2021/05/06 00:38:10;;;;;;;6.03;2.50;;;;;;;;;;744591;185;918608;-77
2021/05/06 00:40:45;;;;;;;3.97;1.97;;;;;;;;;;741425;186;1018009;-75
2021/05/06 00:43:25;;;;;;;5.43;2.30;;;;;;;;;;746557;185;915765;-77
2021/05/06 00:56:20;;;;;;;3.40;1.93;;;;;;;;;;743948;186;918831;-77
2021/05/06 00:58:39;;;;;;;4.30;2.00;;;;;;;;;;747218;186;919625;-77
2021/05/06 01:04:00;;;;;;;3.23;2.00;;;;;;;;;;736841;185;919708;-77
2021/05/06 01:06:19;;;;;;;2.83;1.70;;;;;;;;;;742238;184;918569;-77
2021/05/06 01:08:46;;;;;;;2.73;1.90;;;;;;;;;;743486;187;1015388;-76
2021/05/06 01:11:21;;;;;;;3.42;2.10;;;;;;;;;;744243;186;918734;-74
2021/05/06 01:13:41;;;;;;;3.93;2.23;;;;;;;;;;747033;184;918722;-75
2021/05/06 01:16:04;;;;;;;3.97;2.22;;;;;;;;;;745385;184;1021719;-77
2021/05/06 01:18:30;;;;;;;4.10;2.07;;;;;;;;;;744609;184;1021547;-75
2021/05/06 01:20:59;;;;;;;5.27;2.20;;;;;;;;;;748702;186;919918;-75
2021/05/06 01:23:22;;;;;;;5.10;2.60;;;;;;;;;;745655;186;1023523;-75
2021/05/06 01:26:02;;;;;;;4.50;2.20;;;;;;;;;;744716;186;918338;-74
2021/05/06 01:28:31;;;;;;;3.57;2.17;;;;;;;;;;748140;187;619105;-74
2021/05/06 01:31:03;;;;;;;2.77;1.87;;;;;;;;;;748180;187;918814;-75
2021/05/06 01:33:31;;;;;;;3.73;2.00;;;;;;;;;;747455;185;915395;-73
2021/05/06 01:35:54;;;;;;;3.60;2.12;;;;;;;;;;744452;185;917852;-73
2021/05/06 01:43:41;;;;;;;3.20;2.13;;;;;;;;;;748691;185;918986;-73
2021/05/06 01:49:06;;;;;;;5.93;2.43;;;;;;;;;;744011;186;918737;-74
2021/05/06 01:57:27;;;;;;;3.00;2.20;;;;;;;;;;741688;186;919561;-73
2021/05/06 01:58:44;;;;;;;4.00;2.40;;;;;;;;;;742101;185;917257;-74
2021/05/06 02:01:06;;;;;;;4.77;2.90;;;;;;;;;;740874;186;1019542;-73
2021/05/06 02:03:30;;;;;;;3.40;1.90;;;;;;;;;;739414;185;929431;-72
2021/05/06 02:05:56;;;;;;;4.97;2.50;;;;;;;;;;753442;185;918344;-73
2021/05/06 02:08:22;;;;;;;4.00;2.37;;;;;;;;;;746990;185;918811;-73
2021/05/06 02:10:48;;;;;;;3.00;2.33;;;;;;;;;;745702;186;919848;-73
2021/05/06 02:13:15;;;;;;;2.77;1.93;;;;;;;;;;745477;188;915851;-73
2021/05/06 02:15:42;;;;;;;4.20;1.95;;;;;;;;;;747520;187;919459;-73
2021/05/06 02:18:05;;;;;;;3.30;2.13;;;;;;;;;;741890;185;910501;-74
2021/05/06 02:20:31;;;;;;;4.17;2.73;;;;;;;;;;748391;187;918531;-73
2021/05/06 02:22:57;;;;;;;3.73;2.60;;;;;;;;;;743055;185;1193787;-74
2021/05/06 02:25:23;;;;;;;3.62;2.37;;;;;;;;;;743699;186;916145;-74
2021/05/06 02:27:49;;;;;;;4.57;2.53;;;;;;;;;;742315;186;919157;-73
2021/05/06 02:30:15;;;;;;;3.07;2.07;;;;;;;;;;745191;187;918855;-73
2021/05/06 02:32:41;;;;;;;4.03;2.60;;;;;;;;;;742420;187;918920;-73
2021/05/06 02:35:08;;;;;;;4.53;2.67;;;;;;;;;;742196;185;917882;-72
2021/05/06 02:37:34;;;;;;;4.23;2.90;;;;;;;;;;748678;188;919300;-72
2021/05/06 02:40:00;;;;;;;4.93;2.70;;;;;;;;;;741289;185;918567;-74
2021/05/06 02:42:26;;;;;;;2.80;2.20;;;;;;;;;;744407;187;1021750;-73
2021/05/06 02:44:52;;;;;;;4.40;2.60;;;;;;;;;;747397;186;1082255;-74
2021/05/06 02:47:18;;;;;;;4.23;2.57;;;;;;;;;;745712;187;918579;-74
2021/05/06 02:49:46;;;;;;;3.55;2.20;;;;;;;;;;744694;185;915214;-75
2021/05/06 02:52:19;;;;;;;3.83;2.23;;;;;;;;;;743328;188;918645;-74
2021/05/06 02:54:42;;;;;;;4.30;2.93;;;;;;;;;;745694;184;919180;-73
2021/05/06 02:57:25;;;;;;;4.13;2.53;;;;;;;;;;744101;187;919579;-74
2021/05/06 03:04:49;;;;;;;3.73;2.60;;;;;;;;;;741623;185;919793;-72
2021/05/06 03:07:20;;;;;;;5.17;3.00;;;;;;;;;;748891;187;919870;-75
2021/05/06 03:09:58;;;;;;;4.50;3.00;;;;;;;;;;741837;185;913099;-74
2021/05/06 03:12:38;;;;;;;5.90;3.53;;;;;;;;;;744064;185;919065;-74
2021/05/06 03:15:08;;;;;;;6.90;3.27;;;;;;;;;;742365;186;1011267;-75
2021/05/06 03:22:48;;;;;;;4.07;2.90;;;;;;;;;;749237;185;1065441;-73
2021/05/06 03:25:14;;;;;;;6.57;4.00;;;;;;;;;;743030;186;921545;-75
2021/05/06 03:27:43;;;;;;;6.70;3.37;;;;;;;;;;745535;186;919247;-74
2021/05/06 03:30:25;;;;;;;4.43;3.15;;;;;;;;;;741610;186;2244119;-73
2021/05/06 03:32:39;;;;;;;4.27;3.47;;;;;;;;;;746260;185;918450;-74
2021/05/06 03:42:36;;;;;;;8.77;4.37;;;;;;;;;;750057;186;626346;-73
2021/05/06 03:45:14;;;;;;;7.87;3.90;;;;;;;;;;747125;186;917233;-75
2021/05/06 03:47:52;;;;;;;4.63;3.30;;;;;;;;;;746976;186;711456;-74
2021/05/06 03:51:01;;;;;;;4.90;3.30;;;;;;;;;;743092;187;919547;-73
2021/05/06 04:13:20;;;;;;;8.03;5.27;;;;;;;;;;739492;181;1554910;-73
2021/05/06 04:16:08;;;;;;;11.20;5.20;;;;;;;;;;745751;186;915837;-74
2021/05/06 04:18:12;;;;;;;7.80;4.83;;;;;;;;;;741480;187;945958;-74
2021/05/06 04:25:42;;;;;;;13.40;5.50;;;;;;;;;;743462;184;918893;-75
2021/05/06 04:28:33;;;;;;;9.70;6.67;;;;;;;;;;741824;184;1020393;-74
2021/05/06 04:30:59;;;;;;;10.40;5.53;;;;;;;;;;744505;184;970300;-71
2021/05/06 04:35:46;;;;;;;9.93;6.90;;;;;;;;;;749325;186;917568;-72
2021/05/06 04:38:10;;;;;;;11.57;6.47;;;;;;;;;;743548;186;896120;-72
2021/05/06 04:59:11;;;;;;;7.62;4.65;;;;;;;;;;740998;185;1069828;-70
2021/05/06 05:04:30;;;;;;;11.17;5.60;;;;;;;;;;740040;185;1093307;-75
2021/05/06 05:06:39;;;;;;;5.47;3.47;;;;;;;;;;735357;187;2112465;-72
2021/05/06 05:09:25;;;;;;;8.93;4.43;;;;;;;;;;747825;184;918826;-71
2021/05/06 05:11:39;;;;;;;6.40;4.60;;;;;;;;;;745966;187;920448;-71
2021/05/06 05:14:16;;;;;;;7.43;4.30;;;;;;;;;;741530;185;1021309;-72
2021/05/06 05:19:20;;;;;;;4.33;3.17;;;;;;;;;;745381;185;919143;-70
2021/05/06 05:23:59;;;;;;;4.60;3.08;;;;;;;;;;744775;186;919054;-70
2021/05/06 05:26:21;;;;;;;5.73;3.40;;;;;;;;;;742750;186;919512;-69
2021/05/06 05:28:47;;;;;;;5.93;3.40;;;;;;;;;;743562;187;1021221;-69
2021/05/06 05:31:13;;;;;;;5.13;3.13;;;;;;;;;;741554;186;918704;-70
2021/05/06 05:34:03;;;;;;;5.60;3.80;;;;;;;;;;743250;185;1015178;-70
2021/05/06 05:36:22;;;;;;;5.18;3.05;;;;;;;;;;740669;187;920871;-71
2021/05/06 05:39:08;;;;;;;5.30;3.60;;;;;;;;;;750248;185;915433;-71
2021/05/06 05:41:56;;;;;;;4.95;3.33;;;;;;;;;;746808;186;907720;-69
2021/05/06 05:46:58;;;;;;;4.37;2.77;;;;;;;;;;747582;186;624591;-72
2021/05/06 05:56:57;;;;;;;4.67;2.97;;;;;;;;;;745920;186;918664;-71
2021/05/06 05:59:23;;;;;;;5.27;2.70;;;;;;;;;;744023;185;919403;-72
2021/05/06 06:01:48;;;;;;;5.43;3.35;;;;;;;;;;741638;185;919608;-72
2021/05/06 06:04:14;;;;;;;6.33;3.40;;;;;;;;;;743892;186;996269;-71
2021/05/06 06:06:40;;;;;;;4.10;3.27;;;;;;;;;;741432;186;1391579;-72
2021/05/06 06:09:06;;;;;;;5.67;3.00;;;;;;;;;;748561;186;636130;-75
2021/05/06 06:11:32;;;;;;;4.70;2.80;;;;;;;;;;745942;186;625277;-74
2021/05/06 06:14:03;;;;;;;7.80;3.00;;;;;;;;;;754034;186;613967;-71
2021/05/06 06:16:28;;;;;;;4.40;2.57;;;;;;;;;;750411;185;618563;-74
2021/05/06 06:18:56;;;;;;;7.00;3.80;;;;;;;;;;748047;185;613561;-73
2021/05/06 06:21:24;;;;;;;4.10;3.03;;;;;;;;;;743538;187;1967811;-72
2021/05/06 06:23:46;;;;;;;5.17;3.40;;;;;;;;;;745559;185;644922;-72
2021/05/06 06:26:12;;;;;;;5.70;2.87;;;;;;;;;;748261;186;629968;-72
2021/05/06 06:28:43;;;;;;;4.30;2.80;;;;;;;;;;745573;185;656418;-73
2021/05/06 06:31:12;;;;;;;5.50;2.97;;;;;;;;;;752113;185;616277;-72
2021/05/06 06:33:32;;;;;;;5.07;2.73;;;;;;;;;;746506;185;627633;-73
2021/05/06 06:36:00;;;;;;;4.93;2.57;;;;;;;;;;746228;187;632471;-73
2021/05/06 06:38:24;;;;;;;3.80;2.50;;;;;;;;;;749659;187;642906;-72
2021/05/06 06:40:49;;;;;;;5.70;2.90;;;;;;;;;;748816;186;641744;-73
2021/05/06 06:43:16;;;;;;;5.63;4.33;;;;;;;;;;747428;185;624636;-72
2021/05/06 06:45:41;;;;;;;4.17;2.93;;;;;;;;;;750743;187;615083;-72
2021/05/06 06:48:09;;;;;;;7.33;2.93;;;;;;;;;;743477;185;1137729;-74
2021/05/06 06:50:33;;;;;;;5.40;2.50;;;;;;;;;;747660;185;632933;-71
2021/05/06 06:52:59;;;;;;;5.23;3.73;;;;;;;;;;750030;184;633482;-70
2021/05/06 06:55:25;;;;;;;3.90;3.07;;;;;;;;;;752131;186;653892;-74
2021/05/06 06:57:50;;;;;;;2.97;2.00;;;;;;;;;;745478;185;1284575;-72
2021/05/06 07:00:17;;;;;;;4.40;2.80;;;;;;;;;;745600;184;927826;-71
2021/05/06 07:02:42;;;;;;;6.53;2.90;;;;;;;;;;749960;187;917991;-70
2021/05/06 07:05:09;;;;;;;6.33;2.97;;;;;;;;;;745460;186;915359;-72
2021/05/06 07:07:35;;;;;;;3.63;2.60;;;;;;;;;;746735;186;902859;-71
2021/05/06 07:10:01;;;;;;;4.80;2.70;;;;;;;;;;747767;184;916880;-72
2021/05/06 07:12:26;;;;;;;4.30;3.10;;;;;;;;;;743346;186;919542;-71
2021/05/06 07:14:52;;;;;;;4.37;3.30;;;;;;;;;;741349;186;918600;-73
2021/05/06 07:17:18;;;;;;;4.00;2.67;;;;;;;;;;745229;185;919313;-70
2021/05/06 07:19:44;;;;;;;4.97;2.67;;;;;;;;;;752281;184;908993;-71
2021/05/06 07:22:10;;;;;;;5.70;3.57;;;;;;;;;;744092;185;919547;-73
2021/05/06 07:24:36;;;;;;;4.53;2.80;;;;;;;;;;740700;185;938499;-70
2021/05/06 07:27:02;;;;;;;4.67;2.80;;;;;;;;;;749555;185;918286;-70
2021/05/06 07:29:27;;;;;;;3.57;2.70;;;;;;;;;;744951;185;888114;-71
2021/05/06 07:31:54;;;;;;;6.10;4.10;;;;;;;;;;744053;185;919105;-73
2021/05/06 07:34:21;;;;;;;6.68;3.05;;;;;;;;;;750170;185;919336;-70
2021/05/06 07:36:47;;;;;;;7.67;2.87;;;;;;;;;;742364;185;920775;-71
2021/05/06 07:39:13;;;;;;;3.00;2.40;;;;;;;;;;745295;185;946762;-73
2021/05/06 07:41:39;;;;;;;5.75;3.53;;;;;;;;;;745423;185;918710;-71
2021/05/06 07:44:05;;;;;;;5.03;3.40;;;;;;;;;;747730;184;919689;-71
2021/05/06 07:46:31;;;;;;;4.23;3.10;;;;;;;;;;741024;186;918177;-69
2021/05/06 07:48:57;;;;;;;5.43;3.50;;;;;;;;;;742096;186;1119556;-70
2021/05/06 07:51:23;;;;;;;5.20;3.10;;;;;;;;;;747356;187;913598;-71
2021/05/06 07:53:50;;;;;;;4.33;3.40;;;;;;;;;;746079;185;914190;-70
2021/05/06 07:56:15;;;;;;;7.10;2.70;;;;;;;;;;746600;185;741131;-70
2021/05/06 07:58:40;;;;;;;5.23;3.10;;;;;;;;;;751029;185;625941;-69
2021/05/06 08:01:06;;;;;;;5.50;3.50;;;;;;;;;;746213;186;625659;-68
2021/05/06 08:03:33;;;;;;;4.20;2.70;;;;;;;;;;748884;187;624698;-70
2021/05/06 08:05:58;;;;;;;5.73;3.00;;;;;;;;;;752361;186;615975;-69
2021/05/06 08:08:25;;;;;;;4.47;2.67;;;;;;;;;;749028;186;633581;-69
2021/05/06 08:10:52;;;;;;;4.53;3.20;;;;;;;;;;744469;185;937680;-70
2021/05/06 08:13:17;;;;;;;4.63;3.23;;;;;;;;;;744223;186;920846;-73
2021/05/06 08:15:43;;;;;;;4.10;2.77;;;;;;;;;;751108;185;898528;-69
2021/05/06 08:18:09;;;;;;;5.57;3.47;;;;;;;;;;746173;185;919541;-70
2021/05/06 08:20:35;;;;;;;4.53;3.17;;;;;;;;;;746284;186;918985;-69
2021/05/06 08:23:00;;;;;;;5.30;3.87;;;;;;;;;;745773;185;981317;-69
2021/05/06 08:25:26;;;;;;;4.40;3.87;;;;;;;;;;745914;186;885902;-68
2021/05/06 08:27:52;;;;;;;6.73;3.33;;;;;;;;;;740759;187;919203;-68
2021/05/06 08:30:18;;;;;;;5.23;3.37;;;;;;;;;;748267;187;916637;-73
2021/05/06 08:32:47;;;;;;;7.10;3.60;;;;;;;;;;741438;185;918873;-70
2021/05/06 08:35:13;;;;;;;3.93;2.90;;;;;;;;;;744389;186;919298;-71
2021/05/06 08:37:39;;;;;;;5.40;3.63;;;;;;;;;;745904;184;918800;-69
2021/05/06 08:40:07;;;;;;;6.00;3.97;;;;;;;;;;749425;185;917743;-73
2021/05/06 08:42:32;;;;;;;6.25;4.00;;;;;;;;;;744531;186;938545;-70
2021/05/06 08:44:58;;;;;;;8.00;4.10;;;;;;;;;;744155;185;918690;-70
2021/05/06 08:47:24;;;;;;;5.17;3.00;;;;;;;;;;745995;187;924055;-68
2021/05/06 08:49:49;;;;;;;4.37;3.40;;;;;;;;;;744890;185;918508;-69
2021/05/06 08:52:18;;;;;;;5.73;3.73;;;;;;;;;;743320;185;1019099;-70
2021/05/06 08:54:42;;;;;;;6.80;3.67;;;;;;;;;;743848;185;914524;-70
2021/05/06 08:57:08;;;;;;;4.40;3.30;;;;;;;;;;746571;187;919639;-69
2021/05/06 08:59:34;;;;;;;5.00;3.43;;;;;;;;;;740911;185;920124;-71
2021/05/06 09:01:59;;;;;;;8.37;3.97;;;;;;;;;;742381;187;919850;-68
2021/05/06 09:04:26;;;;;;;4.00;3.10;;;;;;;;;;747016;185;1170970;-69
2021/05/06 09:06:57;;;;;;;5.22;3.30;;;;;;;;;;747421;185;917561;-69
2021/05/06 09:09:23;;;;;;;4.15;2.55;;;;;;;;;;742319;186;919632;-68
2021/05/06 09:11:51;;;;;;;6.33;3.20;;;;;;;;;;748213;187;919428;-69
2021/05/06 09:14:17;;;;;;;8.93;3.90;;;;;;;;;;747495;185;917975;-70
2021/05/06 09:16:43;;;;;;;6.30;2.50;;;;;;;;;;745067;184;1019917;-70
2021/05/06 09:19:13;;;;;;;5.30;3.17;;;;;;;;;;744178;184;979464;-70
2021/05/06 09:21:39;;;;;;;5.77;3.30;;;;;;;;;;751349;185;918817;-69
2021/05/06 09:24:06;;;;;;;4.30;2.60;;;;;;;;;;743752;185;1125743;-70
2021/05/06 09:26:31;;;;;;;7.63;3.00;;;;;;;;;;743876;186;971746;-68
2021/05/06 09:28:58;;;;;;;4.65;3.20;;;;;;;;;;748244;185;919895;-70
2021/05/06 09:31:24;;;;;;;5.20;3.17;;;;;;;;;;748108;186;927159;-69
2021/05/06 09:33:50;;;;;;;6.20;3.27;;;;;;;;;;744036;185;918541;-70
2021/05/06 09:36:15;;;;;;;4.80;2.80;;;;;;;;;;741465;184;1122676;-69
2021/05/06 09:38:43;;;;;;;7.23;3.40;;;;;;;;;;748582;186;919346;-70
2021/05/06 09:41:08;;;;;;;5.70;2.90;;;;;;;;;;740642;185;1030855;-69
2021/05/06 09:43:38;;;;;;;4.53;2.97;;;;;;;;;;745082;185;918228;-69
2021/05/06 09:46:00;;;;;;;3.90;3.00;;;;;;;;;;747341;186;913503;-69
2021/05/06 09:48:27;;;;;;;8.10;4.40;;;;;;;;;;746639;185;912922;-69
2021/05/06 09:50:57;;;;;;;5.67;3.33;;;;;;;;;;745914;185;916614;-72
2021/05/06 09:53:25;;;;;;;4.50;2.80;;;;;;;;;;741424;185;1119490;-71
2021/05/06 09:55:49;;;;;;;5.87;3.00;;;;;;;;;;748292;185;828654;-70
2021/05/06 09:58:15;;;;;;;7.47;3.13;;;;;;;;;;744822;185;919857;-69
2021/05/06 10:00:40;;;;;;;5.77;2.90;;;;;;;;;;744052;185;913104;-71
2021/05/06 10:03:10;;;;;;;5.30;2.30;;;;;;;;;;750618;185;629849;-69
2021/05/06 10:05:37;;;;;;;4.87;3.20;;;;;;;;;;745789;187;624942;-71
2021/05/06 10:08:03;;;;;;;4.17;2.80;;;;;;;;;;748049;187;636199;-74
2021/05/06 10:10:30;;;;;;;3.53;2.20;;;;;;;;;;745132;185;760472;-72
2021/05/06 10:12:55;;;;;;;4.70;2.63;;;;;;;;;;755727;185;625093;-73
2021/05/06 10:15:21;;;;;;;3.00;2.20;;;;;;;;;;743189;185;919993;-72
2021/05/06 10:17:48;;;;;;;5.27;2.80;;;;;;;;;;740754;185;918942;-70
2021/05/06 10:20:14;;;;;;;7.00;2.77;;;;;;;;;;752222;186;915771;-72
2021/05/06 10:22:39;;;;;;;6.13;2.57;;;;;;;;;;742726;186;918832;-70
2021/05/06 10:25:05;;;;;;;10.30;3.20;;;;;;;;;;742433;184;919080;-70
2021/05/06 10:27:31;;;;;;;4.17;2.03;;;;;;;;;;749965;185;918278;-71
2021/05/06 10:29:57;;;;;;;2.20;1.30;;;;;;;;;;745902;185;918677;-73
2021/05/06 10:32:23;;;;;;;4.73;2.40;;;;;;;;;;745428;184;995517;-72
2021/05/06 10:34:54;;;;;;;11.20;2.50;;;;;;;;;;750246;186;628926;-73
2021/05/06 10:37:15;;;;;;;3.70;1.83;;;;;;;;;;740388;186;701887;-73
2021/05/06 10:39:42;;;;;;;3.63;2.20;;;;;;;;;;748596;185;618946;-72
2021/05/06 10:42:14;;;;;;;3.83;2.57;;;;;;;;;;743115;186;918378;-72
2021/05/06 10:44:40;;;;;;;3.97;2.30;;;;;;;;;;748053;185;644172;-75
2021/05/06 10:47:05;;;;;;;5.10;2.53;;;;;;;;;;746540;187;916582;-70
2021/05/06 10:49:32;;;;;;;4.63;2.27;;;;;;;;;;749104;186;616715;-70
2021/05/06 10:51:58;;;;;;;3.00;1.93;;;;;;;;;;748171;186;621831;-74
2021/05/06 10:54:24;;;;;;;5.03;2.40;;;;;;;;;;744462;186;625041;-72
2021/05/06 10:56:50;;;;;;;3.80;2.30;;;;;;;;;;749450;185;623600;-74
2021/05/06 10:59:21;;;;;;;4.37;2.30;;;;;;;;;;746193;185;635612;-72
2021/05/06 11:01:47;;;;;;;4.23;2.13;;;;;;;;;;751344;186;618399;-70
2021/05/06 11:04:13;;;;;;;4.73;1.80;;;;;;;;;;743504;185;919532;-73
2021/05/06 11:06:39;;;;;;;3.60;2.00;;;;;;;;;;743640;186;919008;-70
2021/05/06 11:09:08;;;;;;;3.53;2.00;;;;;;;;;;739185;185;1469683;-70
2021/05/06 11:11:33;;;;;;;3.43;2.20;;;;;;;;;;746206;185;917297;-73
2021/05/06 11:14:02;;;;;;;4.20;2.40;;;;;;;;;;741434;186;915418;-71
2021/05/06 11:16:28;;;;;;;6.90;2.57;;;;;;;;;;744509;186;1018194;-70
2021/05/06 11:18:56;;;;;;;4.93;2.37;;;;;;;;;;743063;187;1832143;-71
2021/05/06 11:21:26;;;;;;;2.58;1.80;;;;;;;;;;746387;185;937612;-71
2021/05/06 11:23:52;;;;;;;3.20;2.33;;;;;;;;;;740303;185;920018;-74
2021/05/06 11:26:18;;;;;;;3.63;2.43;;;;;;;;;;746805;185;1042956;-71
2021/05/06 11:28:43;;;;;;;4.37;2.67;;;;;;;;;;747473;187;916987;-71
2021/05/06 11:31:09;;;;;;;5.03;2.40;;;;;;;;;;743817;186;930355;-72
2021/05/06 11:33:36;;;;;;;3.80;2.10;;;;;;;;;;744214;185;911779;-72
2021/05/06 11:36:07;;;;;;;3.07;1.90;;;;;;;;;;747705;186;918142;-72
2021/05/06 11:38:44;;;;;;;3.10;2.23;;;;;;;;;;744427;184;916391;-70
2021/05/06 11:41:10;;;;;;;4.90;2.70;;;;;;;;;;741921;185;1239716;-72
2021/05/06 11:43:37;;;;;;;8.33;2.30;;;;;;;;;;743884;186;932736;-70
2021/05/06 11:46:04;;;;;;;14.90;3.13;;;;;;;;;;742763;186;915193;-71
2021/05/06 11:48:37;;;;;;;5.60;2.63;;;;;;;;;;746742;185;1020956;-71
2021/05/06 11:51:02;;;;;;;4.10;2.73;;;;;;;;;;742662;185;919863;-75
2021/05/06 11:53:28;;;;;;;4.50;1.90;;;;;;;;;;743337;184;920134;-71
2021/05/06 11:55:54;;;;;;;4.97;2.37;;;;;;;;;;747750;186;918828;-73
2021/05/06 11:58:21;;;;;;;8.57;2.70;;;;;;;;;;747000;188;919682;-72
2021/05/06 12:00:47;;;;;;;6.03;2.77;;;;;;;;;;745567;184;919158;-70
2021/05/06 12:03:13;;;;;;;4.93;2.73;;;;;;;;;;744657;185;919240;-70
2021/05/06 12:05:44;;;;;;;6.40;3.60;;;;;;;;;;741869;186;897095;-69
2021/05/06 12:08:10;;;;;;;4.93;3.20;;;;;;;;;;747698;185;916644;-70
2021/05/06 12:10:38;;;;;;;5.70;2.90;;;;;;;;;;742320;186;919148;-71
2021/05/06 12:13:04;;;;;;;8.60;3.00;;;;;;;;;;749667;187;919480;-69
2021/05/06 12:15:30;;;;;;;4.77;2.87;;;;;;;;;;740303;186;919561;-69
2021/05/06 12:18:01;;;;;;;4.70;2.53;;;;;;;;;;742075;185;918932;-69
2021/05/06 12:20:28;;;;;;;4.77;2.57;;;;;;;;;;742357;187;918127;-70
2021/05/06 12:22:54;;;;;;;4.60;2.73;;;;;;;;;;746177;187;1044564;-71
2021/05/06 12:25:20;;;;;;;3.73;2.67;;;;;;;;;;746164;187;920786;-69
2021/05/06 12:27:46;;;;;;;7.40;2.57;;;;;;;;;;741423;185;918838;-73
2021/05/06 12:30:13;;;;;;;4.10;2.23;;;;;;;;;;754082;185;919217;-72
2021/05/06 12:32:38;;;;;;;5.90;2.67;;;;;;;;;;743915;185;921051;-71
2021/05/06 12:35:04;;;;;;;3.23;2.03;;;;;;;;;;743801;185;921709;-71
2021/05/06 12:37:31;;;;;;;5.77;1.83;;;;;;;;;;742454;186;893008;-72
2021/05/06 12:39:56;;;;;;;7.33;2.47;;;;;;;;;;747787;187;915293;-69
2021/05/06 12:42:26;;;;;;;4.60;2.00;;;;;;;;;;742606;185;917590;-68
2021/05/06 12:44:52;;;;;;;4.97;1.90;;;;;;;;;;743942;184;925785;-70
2021/05/06 12:47:27;;;;;;;4.73;2.10;;;;;;;;;;746517;186;916031;-69
2021/05/06 12:49:57;;;;;;;4.50;2.37;;;;;;;;;;749607;186;919279;-73
2021/05/06 12:52:29;;;;;;;7.57;1.97;;;;;;;;;;744389;184;918863;-72
2021/05/06 12:54:55;;;;;;;3.53;2.53;;;;;;;;;;748904;187;630078;-73
2021/05/06 12:57:21;;;;;;;5.40;2.67;;;;;;;;;;746937;185;892786;-70
2021/05/06 12:59:49;;;;;;;4.90;1.90;;;;;;;;;;749195;185;1132286;-69
2021/05/06 13:02:14;;;;;;;2.87;2.20;;;;;;;;;;742344;185;918923;-70
2021/05/06 13:04:41;;;;;;;7.68;2.40;;;;;;;;;;745137;185;920661;-70
2021/05/06 13:07:07;;;;;;;11.40;2.37;;;;;;;;;;749508;186;919015;-70
2021/05/06 13:09:33;;;;;;;8.93;2.93;;;;;;;;;;740043;185;1508869;-68
2021/05/06 13:11:59;;;;;;;5.32;2.95;;;;;;;;;;744283;188;919357;-69
2021/05/06 13:14:24;;;;;;;3.00;1.90;;;;;;;;;;747461;187;919290;-70
2021/05/06 13:16:51;;;;;;;3.70;2.00;;;;;;;;;;743423;186;919606;-70
2021/05/06 13:19:16;;;;;;;4.27;2.10;;;;;;;;;;747748;186;665059;-73
2021/05/06 13:21:46;;;;;;;5.63;2.20;;;;;;;;;;749602;187;626649;-69
2021/05/06 13:24:12;;;;;;;3.53;1.90;;;;;;;;;;747930;185;909121;-72
2021/05/06 13:26:38;;;;;;;6.17;2.40;;;;;;;;;;742177;187;917751;-68
2021/05/06 13:29:03;;;;;;;5.97;2.27;;;;;;;;;;740888;184;1018490;-70
2021/05/06 13:31:31;;;;;;;3.63;2.43;;;;;;;;;;750216;186;919546;-70
2021/05/06 13:34:03;;;;;;;2.80;1.63;;;;;;;;;;744801;186;918090;-71
2021/05/06 13:36:29;;;;;;;6.60;2.37;;;;;;;;;;744877;187;919312;-70
2021/05/06 13:38:55;;;;;;;8.10;2.77;;;;;;;;;;742720;186;918903;-70
2021/05/06 13:41:22;;;;;;;4.53;1.90;;;;;;;;;;746822;188;1021902;-69
2021/05/06 13:43:48;;;;;;;3.07;1.77;;;;;;;;;;742035;185;918769;-68
2021/05/06 13:46:13;;;;;;;5.63;2.57;;;;;;;;;;742647;186;919365;-71
2021/05/06 13:48:39;;;;;;;3.53;2.20;;;;;;;;;;748335;186;918057;-69
2021/05/06 13:51:05;;;;;;;5.10;2.00;;;;;;;;;;741316;187;919004;-70
2021/05/06 13:53:31;;;;;;;3.83;1.97;;;;;;;;;;744253;187;919107;-69
2021/05/06 13:55:57;;;;;;;4.30;1.90;;;;;;;;;;740958;186;910003;-69
2021/05/06 13:58:23;;;;;;;6.07;2.40;;;;;;;;;;750079;185;919800;-70
2021/05/06 14:00:48;;;;;;;6.30;2.33;;;;;;;;;;744559;185;918545;-70
2021/05/06 14:03:14;;;;;;;4.60;2.60;;;;;;;;;;745417;185;931320;-70
2021/05/06 14:05:40;;;;;;;5.00;2.43;;;;;;;;;;750058;185;919766;-70
2021/05/06 14:08:06;;;;;;;3.50;2.20;;;;;;;;;;750696;185;786636;-70
2021/05/06 14:10:32;;;;;;;8.10;3.00;;;;;;;;;;747650;185;629698;-72
2021/05/06 14:12:58;;;;;;;4.00;2.53;;;;;;;;;;748390;186;919217;-71
2021/05/06 14:15:23;;;;;;;7.63;2.30;;;;;;;;;;741454;184;919237;-70
2021/05/06 14:17:49;;;;;;;4.40;2.60;;;;;;;;;;749026;184;917533;-70
2021/05/06 14:20:15;;;;;;;4.32;2.67;;;;;;;;;;742332;186;919066;-70
2021/05/06 14:22:41;;;;;;;4.10;3.20;;;;;;;;;;752178;185;919003;-70
2021/05/06 14:25:07;;;;;;;8.50;2.60;;;;;;;;;;745257;185;915856;-70
2021/05/06 14:27:33;;;;;;;5.35;2.28;;;;;;;;;;745742;185;916339;-70
2021/05/06 14:29:59;;;;;;;5.67;2.20;;;;;;;;;;753775;185;915476;-70
2021/05/06 14:32:25;;;;;;;3.60;2.15;;;;;;;;;;742602;186;915654;-71
2021/05/06 14:34:51;;;;;;;9.63;2.93;;;;;;;;;;746828;185;916935;-69
2021/05/06 14:37:16;;;;;;;4.93;3.10;;;;;;;;;;747928;185;921650;-71
2021/05/06 14:39:42;;;;;;;4.97;2.20;;;;;;;;;;745692;185;920815;-69
2021/05/06 14:42:08;;;;;;;6.60;2.80;;;;;;;;;;743496;186;1021955;-70
2021/05/06 14:44:34;;;;;;;4.90;2.30;;;;;;;;;;747881;187;1045769;-72
2021/05/06 14:47:00;;;;;;;3.50;2.08;;;;;;;;;;742378;186;920208;-72
2021/05/06 14:49:26;;;;;;;4.33;1.60;;;;;;;;;;744944;186;918856;-70
2021/05/06 14:51:52;;;;;;;4.40;1.87;;;;;;;;;;742517;186;918760;-70
2021/05/06 14:54:17;;;;;;;5.37;2.43;;;;;;;;;;751002;185;629126;-70
2021/05/06 14:56:43;;;;;;;3.40;2.70;;;;;;;;;;740553;186;919313;-71
2021/05/06 14:59:09;;;;;;;6.20;2.72;;;;;;;;;;743384;185;918829;-71
2021/05/06 15:01:35;;;;;;;5.00;2.27;;;;;;;;;;748048;187;920934;-70
2021/05/06 15:04:01;;;;;;;5.20;1.98;;;;;;;;;;736081;187;2258320;-71
2021/05/06 15:06:27;;;;;;;3.20;2.33;;;;;;;;;;746359;186;923192;-71
2021/05/06 15:08:52;;;;;;;5.15;3.00;;;;;;;;;;747915;185;880511;-70
2021/05/06 15:11:18;;;;;;;5.50;2.60;;;;;;;;;;742743;186;919781;-70
2021/05/06 15:13:44;;;;;;;9.35;2.97;;;;;;;;;;743258;185;1021531;-73
2021/05/06 15:16:10;;;;;;;6.65;3.50;;;;;;;;;;744318;186;924226;-71
2021/05/06 15:18:36;;;;;;;5.20;2.73;;;;;;;;;;750695;183;643893;-70
2021/05/06 15:21:02;;;;;;;5.77;3.27;;;;;;;;;;745855;185;934561;-69
2021/05/06 15:23:28;;;;;;;5.12;2.83;;;;;;;;;;743728;185;917130;-71
2021/05/06 15:25:54;;;;;;;4.03;2.43;;;;;;;;;;749624;187;918166;-71
2021/05/06 15:28:19;;;;;;;3.63;2.30;;;;;;;;;;743186;185;918858;-72
2021/05/06 15:30:48;;;;;;;4.07;2.20;;;;;;;;;;744052;187;1021557;-70
2021/05/06 15:33:11;;;;;;;4.70;2.30;;;;;;;;;;749403;186;912567;-71
2021/05/06 15:35:37;;;;;;;3.37;2.30;;;;;;;;;;744607;185;919092;-72
2021/05/06 15:38:03;;;;;;;5.20;2.07;;;;;;;;;;743552;185;918826;-71
2021/05/06 15:40:29;;;;;;;5.57;2.70;;;;;;;;;;749580;186;919140;-70
2021/05/06 15:42:55;;;;;;;3.67;2.23;;;;;;;;;;745028;184;919040;-71
2021/05/06 15:45:20;;;;;;;5.10;2.70;;;;;;;;;;739004;186;1775841;-72
2021/05/06 15:47:46;;;;;;;4.93;2.57;;;;;;;;;;744633;185;923355;-71
2021/05/06 15:50:14;;;;;;;5.63;3.30;;;;;;;;;;747705;186;914479;-71
2021/05/06 15:52:40;;;;;;;4.67;2.40;;;;;;;;;;746365;186;915421;-70
2021/05/06 15:55:08;;;;;;;3.70;2.17;;;;;;;;;;744142;186;916892;-70
2021/05/06 15:57:34;;;;;;;3.80;3.00;;;;;;;;;;747897;185;1120718;-71
2021/05/06 15:59:58;;;;;;;6.13;2.80;;;;;;;;;;743187;186;917123;-73
2021/05/06 16:02:26;;;;;;;6.72;3.37;;;;;;;;;;745429;185;914261;-69
2021/05/06 16:04:50;;;;;;;5.27;2.63;;;;;;;;;;747062;185;865372;-70
2021/05/06 16:07:16;;;;;;;6.03;2.53;;;;;;;;;;743346;186;917895;-70
2021/05/06 16:09:42;;;;;;;6.17;2.60;;;;;;;;;;742456;187;914802;-71
2021/05/06 16:12:08;;;;;;;3.63;2.30;;;;;;;;;;745540;186;919255;-70
2021/05/06 16:14:34;;;;;;;4.93;2.30;;;;;;;;;;750314;186;905787;-71
2021/05/06 16:17:00;;;;;;;4.67;2.40;;;;;;;;;;745915;187;919086;-71
2021/05/06 16:19:25;;;;;;;7.10;2.40;;;;;;;;;;748306;186;812525;-70
2021/05/06 16:21:52;;;;;;;3.83;2.47;;;;;;;;;;747121;186;888058;-71
2021/05/06 16:24:19;;;;;;;3.93;2.63;;;;;;;;;;744190;184;918542;-72
2021/05/06 16:26:43;;;;;;;3.77;2.13;;;;;;;;;;745895;184;927416;-69
2021/05/06 16:29:09;;;;;;;3.90;1.77;;;;;;;;;;749194;185;919805;-70
2021/05/06 16:31:35;;;;;;;7.93;2.80;;;;;;;;;;743094;184;920748;-69
2021/05/06 16:34:04;;;;;;;4.62;2.00;;;;;;;;;;745778;186;918778;-70
2021/05/06 16:36:37;;;;;;;5.07;2.23;;;;;;;;;;744342;185;1016368;-70
2021/05/06 16:39:39;;;;;;;2.90;2.10;;;;;;;;;;748329;185;913567;-70